Flight Track Log - Related Links

Times and Time Zones

All times are in EDT time to prevent confusion due to time zone crossing. See the RPA3496 flight status page for this flight to view local times or setup timezone preferences in your user account.

Time Position Orientation Groundspeed Altitude Reporting Facility
EDT Latitude Longitude Course Direction KTS MPH feet Rate Location/Type
Fri 12:49:49 PM 42.3667 -70.9667 198° South 166 191 1,100  Level KA90
Fri 12:50:34 PM 42.3667 -70.9167 90° East 216 249 2,600 2,512 Climbing KA90
Fri 12:51:15 PM 42.3822 -70.8594 70° East 210 242 4,700 2,571 Climbing Boston Center
Fri 12:52:19 PM 42.3806 -70.7531 91° East 273 314 7,100 2,516 Climbing Boston Center
Fri 12:53:00 PM 42.1941 -70.6304 160° South  Level FlightAware Approximate
Fri 12:53:19 PM 42.3122 -70.6939 147° Southeast 301 346 9,900  Level Boston Center
Fri 12:54:00 PM 42.0997 -70.6168 198° South  Level FlightAware Approximate
Fri 12:54:20 PM 42.2283 -70.6539 161° South 318 366 11,400  Level Boston Center
Fri 12:55:00 PM 42.0041 -70.6593 198° South  Level FlightAware Approximate
Fri 12:55:23 PM 42.1281 -70.6211 166° South 370 426 13,800  Level Boston Center
Fri 12:56:25 PM 42.0319 -70.6619 198° South 366 421 15,800 1,967 Climbing Boston Center
Fri 12:57:25 PM 41.9300 -70.7069 198° South 385 443 17,800 1,785 Climbing Boston Center
Fri 12:58:26 PM 41.8247 -70.7564 199° South 401 461 19,400 1,869 Climbing Boston Center
Fri 12:59:27 PM 41.7067 -70.8450 209° Southwest 406 467 21,600 1,839 Climbing Boston Center
Fri 01:00:30 PM 41.6053 -70.9211 209° Southwest 415 478 23,200 1,152 Climbing Boston Center
Fri 01:01:32 PM 41.5142 -71.0167 218° Southwest 423 487 24,000 393 Climbing Boston Center
Fri 01:02:32 PM 41.4422 -71.1350 231° Southwest 415 478 24,000  Level Boston Center
Fri 01:03:33 PM 41.3611 -71.2658 230° Southwest 415 478 24,000  Level Boston Center
Fri 01:04:34 PM 41.2878 -71.3822 230° Southwest 414 476 24,000  Level Boston Center
Fri 01:05:38 PM 41.2250 -71.4864 231° Southwest 412 474 24,000  Level Boston Center
Fri 01:06:39 PM 41.1483 -71.6200 233° Southwest 410 472 24,000  Level Boston Center
Fri 01:07:39 PM 41.0739 -71.7408 231° Southwest 421 484 24,000  Level Boston Center
Fri 01:08:40 PM 40.9928 -71.8694 230° Southwest 422 486 24,000  Level Boston Center
Fri 01:09:41 PM 40.9214 -71.9806 230° Southwest 421 484 24,000  Level Boston Center
Fri 01:10:42 PM 40.8458 -72.0986 230° Southwest 421 484 24,000  Level Boston Center
Fri 01:11:45 PM 40.7700 -72.2158 230° Southwest 421 484 24,000  Level Boston Center
Fri 01:12:47 PM 40.6914 -72.3400 230° Southwest 421 484 24,000 -439 Level Boston Center
Fri 01:13:48 PM 40.6164 -72.4550 229° Southwest 420 483 23,100 -934 Descending Boston Center
Fri 01:14:49 PM 40.5428 -72.5706 230° Southwest 417 480 22,100 -984 Descending Boston Center
Fri 01:15:50 PM 40.4694 -72.6833 229° Southwest 411 473 21,100 -992 Descending Boston Center
Fri 01:16:50 PM 40.3981 -72.7919 229° Southwest 397 457 20,100 -545 Descending Boston Center
Fri 01:17:51 PM 40.3128 -72.9222 229° Southwest 396 456 20,000 -48 Descending Boston Center
Fri 01:18:54 PM 40.2406 -73.0319 229° Southwest 397 457 20,000  Level Boston Center
Fri 01:19:55 PM 40.1706 -73.1394 230° Southwest 398 458 20,000 -50 Level Boston Center
Fri 01:20:55 PM 40.0983 -73.2469 229° Southwest 396 456 19,900 -532 Descending Boston Center
Fri 01:21:59 PM 40.0272 -73.3556 229° Southwest 396 456 18,900 -960 Descending Boston Center
Fri 01:23:00 PM 39.9567 -73.4603 229° Southwest 389 448 17,900 -942 Descending Boston Center
Fri 01:24:00 PM 39.8856 -73.5675 229° Southwest 387 445 17,000 -936 Descending Boston Center
Fri 01:24:49 PM 39.8211 -73.6708 231° Southwest 398 458 16,200 -550 Descending Washington Center
Fri 01:25:49 PM 39.7619 -73.7614 230° Southwest 383 441 16,000 -98 Descending Washington Center
Fri 01:26:51 PM 39.6969 -73.8656 231° Southwest 383 441 16,000  Level Washington Center
Fri 01:27:52 PM 39.6336 -73.9667 231° Southwest 383 441 16,000 -407 Level Washington Center
Fri 01:28:49 PM 39.5664 -74.0706 230° Southwest 383 441 15,200 -1,017 Descending Washington Center
Fri 01:29:50 PM 39.5219 -74.1844 243° Southwest 377 434 14,000 -738 Descending Washington Center
Fri 01:30:51 PM 39.5253 -74.3108 272° West 345 397 13,700 -756 Descending Washington Center
Fri 01:31:49 PM 39.5286 -74.4267 272° West 340 391 12,500 -1,269 Descending Washington Center
Fri 01:33:46 PM 39.5333 -74.6667 272° West 316 364 10,000 -885 Descending Philadelphia TRACON
Fri 01:34:52 PM 39.5333 -74.7833 270° West 274 315 9,800 -810 Descending Philadelphia TRACON
Fri 01:35:52 PM 39.5333 -74.8833 270° West 281 323 8,300 -1,450 Descending Philadelphia TRACON
Fri 01:36:52 PM 39.5333 -74.9833 270° West 277 319 6,900 -1,200 Descending Philadelphia TRACON
Fri 01:37:47 PM 39.5500 -75.0667 285° West 276 318 6,000 -470 Descending Philadelphia TRACON
Fri 01:38:47 PM 39.5500 -75.1667 270° West 278 320 6,000  Level Philadelphia TRACON
Fri 01:39:47 PM 39.5667 -75.2667 282° West 278 320 6,000  Level Philadelphia TRACON
Fri 01:40:47 PM 39.5833 -75.3500 285° West 233 268 6,000  Level Philadelphia TRACON
Fri 01:41:47 PM 39.6167 -75.4333 297° West 233 268 6,000  Level Philadelphia TRACON
Fri 01:42:59 PM 39.6667 -75.5000 314° West 239 275 6,000  Level Philadelphia TRACON
Fri 01:43:47 PM 39.7167 -75.5167 346° North 220 253 6,000 -750 Level Philadelphia TRACON
Fri 01:44:59 PM 39.7833 -75.5333 349° North 194 223 4,500 -1,050 Descending Philadelphia TRACON
Fri 01:45:47 PM 39.8167 -75.5000 38° Northeast 200 230 3,900 -1,100 Descending Philadelphia TRACON
Fri 01:46:59 PM 39.8333 -75.4167 75° East 192 221 2,300 -1,182 Descending Philadelphia TRACON
Fri 01:47:59 PM 39.8500 -75.3500 72° East 184 212 1,300 -893 Descending Philadelphia TRACON
Fri 01:49:00 PM 39.8500 -75.3000 90° East 143 165 500 -787 Descending Philadelphia TRACON
Fri 01:50:00 PM 39.8667 -75.2333 64° Northeast  Level FlightAware Approximate

Login

Don't have an account? Register now (free) for customized features, flight alerts, and more!